sensor_id;sensor_type;location;lat;lon;timestamp;pressure;altitude;pressure_sealevel;temperature;humidity
5138;BME280;53959;53.626;11.410;2023-03-23T00:01:12;99791.53;;;10.63;69.55
5138;BME280;53959;53.626;11.410;2023-03-23T00:03:45;99805.81;;;10.61;70.04
5138;BME280;53959;53.626;11.410;2023-03-23T00:06:11;99797.09;;;10.57;70.63
5138;BME280;53959;53.626;11.410;2023-03-23T00:08:46;99798.44;;;10.45;71.18
5138;BME280;53959;53.626;11.410;2023-03-23T00:11:23;99781.78;;;10.42;72.32
5138;BME280;53959;53.626;11.410;2023-03-23T00:13:50;99777.66;;;10.33;72.59
5138;BME280;53959;53.626;11.410;2023-03-23T00:16:17;99776.88;;;10.31;72.80
5138;BME280;53959;53.626;11.410;2023-03-23T00:18:50;99788.53;;;10.27;73.33
5138;BME280;53959;53.626;11.410;2023-03-23T00:21:20;99778.22;;;10.18;74.13
5138;BME280;53959;53.626;11.410;2023-03-23T00:23:45;99767.72;;;10.15;74.56
5138;BME280;53959;53.626;11.410;2023-03-23T00:26:11;99774.19;;;10.08;75.08
5138;BME280;53959;53.626;11.410;2023-03-23T00:28:38;99787.44;;;10.08;75.65
5138;BME280;53959;53.626;11.410;2023-03-23T00:31:06;99784.13;;;10.03;75.31
5138;BME280;53959;53.626;11.410;2023-03-23T00:33:36;99785.09;;;10.00;75.57
5138;BME280;53959;53.626;11.410;2023-03-23T00:36:11;99786.09;;;9.97;76.22
5138;BME280;53959;53.626;11.410;2023-03-23T00:38:38;99778.25;;;9.94;76.32
5138;BME280;53959;53.626;11.410;2023-03-23T00:41:04;99781.81;;;9.93;76.24
5138;BME280;53959;53.626;11.410;2023-03-23T00:43:31;99786.41;;;9.88;76.60
5138;BME280;53959;53.626;11.410;2023-03-23T00:45:58;99782.03;;;9.87;76.13
5138;BME280;53959;53.626;11.410;2023-03-23T00:48:27;99785.72;;;9.83;77.19
5138;BME280;53959;53.626;11.410;2023-03-23T00:50:53;99785.66;;;9.85;77.24
5138;BME280;53959;53.626;11.410;2023-03-23T00:53:20;99779.59;;;9.81;77.66
5138;BME280;53959;53.626;11.410;2023-03-23T00:55:46;99778.09;;;9.74;78.20
5138;BME280;53959;53.626;11.410;2023-03-23T00:58:13;99787.09;;;9.70;78.52
5138;BME280;53959;53.626;11.410;2023-03-23T01:00:39;99785.47;;;9.66;79.03
5138;BME280;53959;53.626;11.410;2023-03-23T01:03:05;99789.16;;;9.62;79.34
5138;BME280;53959;53.626;11.410;2023-03-23T01:05:39;99784.00;;;9.57;79.79
5138;BME280;53959;53.626;11.410;2023-03-23T01:08:05;99778.88;;;9.53;80.52
5138;BME280;53959;53.626;11.410;2023-03-23T01:10:32;99778.03;;;9.52;80.87
5138;BME280;53959;53.626;11.410;2023-03-23T01:12:58;99773.69;;;9.49;81.53
5138;BME280;53959;53.626;11.410;2023-03-23T01:15:25;99777.25;;;9.48;81.49
5138;BME280;53959;53.626;11.410;2023-03-23T01:17:50;99771.09;;;9.48;82.15
5138;BME280;53959;53.626;11.410;2023-03-23T01:20:16;99776.34;;;9.49;82.06
5138;BME280;53959;53.626;11.410;2023-03-23T01:22:42;99769.91;;;9.57;82.21
5138;BME280;53959;53.626;11.410;2023-03-23T01:25:10;99761.25;;;9.52;82.55
5138;BME280;53959;53.626;11.410;2023-03-23T01:27:36;99754.28;;;9.49;82.91
5138;BME280;53959;53.626;11.410;2023-03-23T01:30:03;99745.47;;;9.48;83.13
5138;BME280;53959;53.626;11.410;2023-03-23T01:32:29;99745.56;;;9.45;83.41
5138;BME280;53959;53.626;11.410;2023-03-23T01:34:55;99747.28;;;9.46;83.57
5138;BME280;53959;53.626;11.410;2023-03-23T01:37:20;99748.25;;;9.44;83.77
5138;BME280;53959;53.626;11.410;2023-03-23T01:39:55;99739.59;;;9.39;84.33
5138;BME280;53959;53.626;11.410;2023-03-23T01:42:26;99734.31;;;9.39;84.36
5138;BME280;53959;53.626;11.410;2023-03-23T01:47:21;99725.66;;;9.34;84.78
5138;BME280;53959;53.626;11.410;2023-03-23T01:49:50;99735.34;;;9.35;84.74
5138;BME280;53959;53.626;11.410;2023-03-23T01:52:22;99730.09;;;9.33;85.03
5138;BME280;53959;53.626;11.410;2023-03-23T01:54:50;99732.69;;;9.35;85.37
5138;BME280;53959;53.626;11.410;2023-03-23T01:57:20;99720.47;;;9.31;85.40
5138;BME280;53959;53.626;11.410;2023-03-23T01:59:50;99717.94;;;9.28;85.66
5138;BME280;53959;53.626;11.410;2023-03-23T02:02:20;99724.09;;;9.28;85.57
5138;BME280;53959;53.626;11.410;2023-03-23T02:04:47;99716.13;;;9.28;86.12
5138;BME280;53959;53.626;11.410;2023-03-23T02:07:14;99718.75;;;9.30;85.94
5138;BME280;53959;53.626;11.410;2023-03-23T02:09:40;99719.66;;;9.29;85.53
5138;BME280;53959;53.626;11.410;2023-03-23T02:12:06;99716.13;;;9.28;86.01
5138;BME280;53959;53.626;11.410;2023-03-23T02:14:33;99716.25;;;9.25;86.08
5138;BME280;53959;53.626;11.410;2023-03-23T02:20:13;99717.22;;;9.22;86.23
5138;BME280;53959;53.626;11.410;2023-03-23T02:22:48;99709.31;;;9.21;86.66
5138;BME280;53959;53.626;11.410;2023-03-23T02:28:12;99711.06;;;9.22;86.75
5138;BME280;53959;53.626;11.410;2023-03-23T02:33:29;99690.78;;;9.21;86.74
5138;BME280;53959;53.626;11.410;2023-03-23T02:38:53;99685.53;;;9.19;87.36
5138;BME280;53959;53.626;11.410;2023-03-23T02:41:23;99678.47;;;9.20;86.90
5138;BME280;53959;53.626;11.410;2023-03-23T02:43:50;99677.44;;;9.24;87.15
5138;BME280;53959;53.626;11.410;2023-03-23T02:46:17;99672.94;;;9.26;87.40
5138;BME280;53959;53.626;11.410;2023-03-23T02:48:46;99668.78;;;9.19;87.38
5138;BME280;53959;53.626;11.410;2023-03-23T02:51:16;99683.81;;;9.18;87.17
5138;BME280;53959;53.626;11.410;2023-03-23T02:53:43;99674.03;;;9.20;87.08
5138;BME280;53959;53.626;11.410;2023-03-23T02:56:10;99675.78;;;9.21;87.54
5138;BME280;53959;53.626;11.410;2023-03-23T02:58:37;99672.97;;;9.24;87.05
5138;BME280;53959;53.626;11.410;2023-03-23T03:03:49;99651.97;;;9.20;87.18
5138;BME280;53959;53.626;11.410;2023-03-23T03:06:32;99643.91;;;9.23;87.61
5138;BME280;53959;53.626;11.410;2023-03-23T03:09:16;99635.84;;;9.26;87.35
5138;BME280;53959;53.626;11.410;2023-03-23T03:11:48;99647.50;;;9.22;87.37
5138;BME280;53959;53.626;11.410;2023-03-23T03:14:30;99653.59;;;9.24;87.38
5138;BME280;53959;53.626;11.410;2023-03-23T03:17:20;99650.00;;;9.25;87.60
5138;BME280;53959;53.626;11.410;2023-03-23T03:19:51;99650.06;;;9.23;87.42
5138;BME280;53959;53.626;11.410;2023-03-23T03:22:19;99646.63;;;9.21;87.73
5138;BME280;53959;53.626;11.410;2023-03-23T03:24:47;99648.28;;;9.24;87.71
5138;BME280;53959;53.626;11.410;2023-03-23T03:27:16;99649.28;;;9.21;87.26
5138;BME280;53959;53.626;11.410;2023-03-23T03:29:49;99643.16;;;9.19;87.32
5138;BME280;53959;53.626;11.410;2023-03-23T03:32:21;99647.63;;;9.17;87.42
5138;BME280;53959;53.626;11.410;2023-03-23T03:34:48;99635.13;;;9.21;87.61
5138;BME280;53959;53.626;11.410;2023-03-23T03:39:51;99637.03;;;9.17;87.52
5138;BME280;53959;53.626;11.410;2023-03-23T03:42:16;99638.03;;;9.15;87.43
5138;BME280;53959;53.626;11.410;2023-03-23T03:44:42;99631.69;;;9.19;87.95
5138;BME280;53959;53.626;11.410;2023-03-23T03:47:08;99644.13;;;9.17;87.93
5138;BME280;53959;53.626;11.410;2023-03-23T03:49:33;99631.75;;;9.17;87.57
5138;BME280;53959;53.626;11.410;2023-03-23T03:51:59;99622.03;;;9.18;87.91
5138;BME280;53959;53.626;11.410;2023-03-23T03:54:34;99625.66;;;9.15;87.87
5138;BME280;53959;53.626;11.410;2023-03-23T03:56:59;99617.63;;;9.17;87.74
5138;BME280;53959;53.626;11.410;2023-03-23T03:59:56;99605.22;;;9.19;87.61
5138;BME280;53959;53.626;11.410;2023-03-23T04:02:48;99592.94;;;9.16;87.81
5138;BME280;53959;53.626;11.410;2023-03-23T04:05:17;99606.13;;;9.18;88.00
5138;BME280;53959;53.626;11.410;2023-03-23T04:07:46;99618.38;;;9.20;87.81
5138;BME280;53959;53.626;11.410;2023-03-23T04:10:14;99622.81;;;9.20;87.79
5138;BME280;53959;53.626;11.410;2023-03-23T04:12:42;99611.19;;;9.24;88.18
5138;BME280;53959;53.626;11.410;2023-03-23T04:15:26;99608.78;;;9.18;87.90
5138;BME280;53959;53.626;11.410;2023-03-23T04:17:52;99605.03;;;9.23;87.87
5138;BME280;53959;53.626;11.410;2023-03-23T04:20:17;99599.91;;;9.19;87.79
5138;BME280;53959;53.626;11.410;2023-03-23T04:22:48;99602.47;;;9.22;88.11
5138;BME280;53959;53.626;11.410;2023-03-23T04:25:19;99595.25;;;9.26;88.16
5138;BME280;53959;53.626;11.410;2023-03-23T04:27:50;99594.38;;;9.25;88.05
5138;BME280;53959;53.626;11.410;2023-03-23T04:30:25;99599.66;;;9.25;87.99
5138;BME280;53959;53.626;11.410;2023-03-23T04:33:06;99592.53;;;9.27;88.04
5138;BME280;53959;53.626;11.410;2023-03-23T04:35:32;99599.56;;;9.28;87.96
5138;BME280;53959;53.626;11.410;2023-03-23T04:38:13;99581.00;;;9.28;87.75
5138;BME280;53959;53.626;11.410;2023-03-23T04:40:42;99579.28;;;9.27;88.04
5138;BME280;53959;53.626;11.410;2023-03-23T04:43:20;99582.75;;;9.29;87.81
5138;BME280;53959;53.626;11.410;2023-03-23T04:46:15;99579.28;;;9.27;87.54
5138;BME280;53959;53.626;11.410;2023-03-23T04:48:44;99586.31;;;9.28;87.96
5138;BME280;53959;53.626;11.410;2023-03-23T04:51:16;99580.78;;;9.34;88.00
5138;BME280;53959;53.626;11.410;2023-03-23T04:53:44;99580.88;;;9.33;88.01
5138;BME280;53959;53.626;11.410;2023-03-23T04:56:09;99579.06;;;9.33;87.79
5138;BME280;53959;53.626;11.410;2023-03-23T04:58:41;99579.94;;;9.34;87.67
5138;BME280;53959;53.626;11.410;2023-03-23T05:01:20;99569.25;;;9.35;87.83
5138;BME280;53959;53.626;11.410;2023-03-23T05:04:04;99574.66;;;9.32;87.50
5138;BME280;53959;53.626;11.410;2023-03-23T05:06:31;99570.00;;;9.39;87.69
5138;BME280;53959;53.626;11.410;2023-03-23T05:09:01;99576.16;;;9.39;87.58
5138;BME280;53959;53.626;11.410;2023-03-23T05:11:28;99589.50;;;9.38;87.33
5138;BME280;53959;53.626;11.410;2023-03-23T05:13:54;99587.91;;;9.32;87.57
5138;BME280;53959;53.626;11.410;2023-03-23T05:16:21;99583.44;;;9.34;87.67
5138;BME280;53959;53.626;11.410;2023-03-23T05:18:47;99593.81;;;9.40;87.88
5138;BME280;53959;53.626;11.410;2023-03-23T05:21:14;99595.53;;;9.41;87.76
5138;BME280;53959;53.626;11.410;2023-03-23T05:23:44;99588.66;;;9.36;87.72
5138;BME280;53959;53.626;11.410;2023-03-23T05:26:17;99592.06;;;9.39;87.77
5138;BME280;53959;53.626;11.410;2023-03-23T05:28:43;99593.00;;;9.38;87.43
5138;BME280;53959;53.626;11.410;2023-03-23T05:31:21;99588.56;;;9.39;87.61
5138;BME280;53959;53.626;11.410;2023-03-23T05:33:47;99588.34;;;9.45;87.68
5138;BME280;53959;53.626;11.410;2023-03-23T05:36:24;99582.22;;;9.43;87.20
5138;BME280;53959;53.626;11.410;2023-03-23T05:39:06;99588.44;;;9.42;87.61
5138;BME280;53959;53.626;11.410;2023-03-23T05:41:53;99586.53;;;9.45;87.52
5138;BME280;53959;53.626;11.410;2023-03-23T05:44:19;99585.78;;;9.42;87.59
5138;BME280;53959;53.626;11.410;2023-03-23T05:46:49;99572.34;;;9.46;87.37
5138;BME280;53959;53.626;11.410;2023-03-23T05:49:16;99594.53;;;9.44;87.65
5138;BME280;53959;53.626;11.410;2023-03-23T05:51:45;99605.19;;;9.42;87.53
5138;BME280;53959;53.626;11.410;2023-03-23T05:54:12;99592.88;;;9.41;87.67
5138;BME280;53959;53.626;11.410;2023-03-23T05:56:40;99590.13;;;9.44;87.71
5138;BME280;53959;53.626;11.410;2023-03-23T05:59:19;99586.53;;;9.45;87.72
5138;BME280;53959;53.626;11.410;2023-03-23T06:01:48;99594.53;;;9.44;87.40
5138;BME280;53959;53.626;11.410;2023-03-23T06:04:14;99587.34;;;9.47;87.60
5138;BME280;53959;53.626;11.410;2023-03-23T06:06:49;99588.91;;;9.53;87.38
5138;BME280;53959;53.626;11.410;2023-03-23T06:09:14;99586.31;;;9.52;87.32
5138;BME280;53959;53.626;11.410;2023-03-23T06:11:57;99578.41;;;9.50;87.53
5138;BME280;53959;53.626;11.410;2023-03-23T06:14:33;99579.97;;;9.56;87.34
5138;BME280;53959;53.626;11.410;2023-03-23T06:16:59;99573.75;;;9.57;87.19
5138;BME280;53959;53.626;11.410;2023-03-23T06:19:25;99570.16;;;9.58;87.19
5138;BME280;53959;53.626;11.410;2023-03-23T06:22:12;99579.16;;;9.54;86.94
5138;BME280;53959;53.626;11.410;2023-03-23T06:25:02;99573.78;;;9.55;86.97
5138;BME280;53959;53.626;11.410;2023-03-23T06:27:34;99577.13;;;9.60;87.08
5138;BME280;53959;53.626;11.410;2023-03-23T06:30:03;99575.47;;;9.58;86.87
5138;BME280;53959;53.626;11.410;2023-03-23T06:32:30;99578.22;;;9.55;86.85
5138;BME280;53959;53.626;11.410;2023-03-23T06:34:57;99576.28;;;9.60;87.03
5138;BME280;53959;53.626;11.410;2023-03-23T06:37:41;99572.88;;;9.56;86.79
5138;BME280;53959;53.626;11.410;2023-03-23T06:40:13;99572.81;;;9.58;86.79
5138;BME280;53959;53.626;11.410;2023-03-23T06:42:42;99566.72;;;9.56;86.87
5138;BME280;53959;53.626;11.410;2023-03-23T06:45:34;99568.44;;;9.57;86.59
5138;BME280;53959;53.626;11.410;2023-03-23T06:48:17;99575.28;;;9.62;86.49
5138;BME280;53959;53.626;11.410;2023-03-23T06:50:44;99578.84;;;9.61;86.55
5138;BME280;53959;53.626;11.410;2023-03-23T06:53:11;99572.78;;;9.59;86.59
5138;BME280;53959;53.626;11.410;2023-03-23T06:55:37;99571.84;;;9.60;86.49
5138;BME280;53959;53.626;11.410;2023-03-23T06:58:04;99573.50;;;9.63;86.42
5138;BME280;53959;53.626;11.410;2023-03-23T07:00:31;99571.56;;;9.66;86.44
5138;BME280;53959;53.626;11.410;2023-03-23T07:02:57;99568.06;;;9.66;86.51
5138;BME280;53959;53.626;11.410;2023-03-23T07:05:23;99575.22;;;9.64;86.28
5138;BME280;53959;53.626;11.410;2023-03-23T07:07:49;99576.72;;;9.71;86.09
5138;BME280;53959;53.626;11.410;2023-03-23T07:10:28;99568.56;;;9.76;85.94
5138;BME280;53959;53.626;11.410;2023-03-23T07:12:54;99580.91;;;9.77;85.41
5138;BME280;53959;53.626;11.410;2023-03-23T07:15:20;99582.59;;;9.79;85.38
5138;BME280;53959;53.626;11.410;2023-03-23T07:17:48;99581.72;;;9.79;85.13
5138;BME280;53959;53.626;11.410;2023-03-23T07:20:20;99582.69;;;9.76;84.87
5138;BME280;53959;53.626;11.410;2023-03-23T07:22:47;99584.28;;;9.80;85.25
5138;BME280;53959;53.626;11.410;2023-03-23T07:25:25;99583.25;;;9.84;84.78
5138;BME280;53959;53.626;11.410;2023-03-23T07:27:53;99575.28;;;9.84;84.68
5138;BME280;53959;53.626;11.410;2023-03-23T07:30:19;99582.03;;;9.93;84.31
5138;BME280;53959;53.626;11.410;2023-03-23T07:32:45;99582.91;;;9.93;84.11
5138;BME280;53959;53.626;11.410;2023-03-23T07:35:11;99589.72;;;9.99;84.17
5138;BME280;53959;53.626;11.410;2023-03-23T07:37:48;99589.41;;;10.07;84.05
5138;BME280;53959;53.626;11.410;2023-03-23T07:40:15;99584.97;;;10.07;83.58
5138;BME280;53959;53.626;11.410;2023-03-23T07:42:45;99589.09;;;10.14;83.32
5138;BME280;53959;53.626;11.410;2023-03-23T07:45:22;99591.72;;;10.16;82.94
5138;BME280;53959;53.626;11.410;2023-03-23T07:47:48;99588.16;;;10.15;83.28
5138;BME280;53959;53.626;11.410;2023-03-23T07:50:14;99583.59;;;10.19;82.53
5138;BME280;53959;53.626;11.410;2023-03-23T07:52:41;99595.84;;;10.23;82.75
5138;BME280;53959;53.626;11.410;2023-03-23T07:55:09;99590.66;;;10.20;82.37
5138;BME280;53959;53.626;11.410;2023-03-23T07:57:59;99594.75;;;10.29;82.18
5138;BME280;53959;53.626;11.410;2023-03-23T08:00:25;99584.97;;;10.29;82.26
5138;BME280;53959;53.626;11.410;2023-03-23T08:02:54;99586.09;;;10.45;81.61
5138;BME280;53959;53.626;11.410;2023-03-23T08:05:45;99587.53;;;10.53;81.43
5138;BME280;53959;53.626;11.410;2023-03-23T08:08:44;99588.41;;;10.53;81.00
5138;BME280;53959;53.626;11.410;2023-03-23T08:11:29;99591.78;;;10.57;81.43
5138;BME280;53959;53.626;11.410;2023-03-23T08:14:26;99589.06;;;10.58;80.77
5138;BME280;53959;53.626;11.410;2023-03-23T08:17:04;99591.47;;;10.64;80.68
5138;BME280;53959;53.626;11.410;2023-03-23T08:19:41;99601.19;;;10.64;80.53
5138;BME280;53959;53.626;11.410;2023-03-23T08:22:27;99607.00;;;10.74;80.26
5138;BME280;53959;53.626;11.410;2023-03-23T08:25:15;99603.16;;;10.81;80.06
5138;BME280;53959;53.626;11.410;2023-03-23T08:28:17;99588.38;;;10.94;80.09
5138;BME280;53959;53.626;11.410;2023-03-23T08:31:09;99595.00;;;11.04;79.25
5138;BME280;53959;53.626;11.410;2023-03-23T08:33:55;99595.88;;;11.05;78.66
5138;BME280;53959;53.626;11.410;2023-03-23T08:36:37;99603.63;;;11.09;78.72
5138;BME280;53959;53.626;11.410;2023-03-23T08:39:26;99592.59;;;11.18;78.91
5138;BME280;53959;53.626;11.410;2023-03-23T08:42:15;99593.59;;;11.16;78.71
5138;BME280;53959;53.626;11.410;2023-03-23T08:44:53;99596.34;;;11.14;78.67
5138;BME280;53959;53.626;11.410;2023-03-23T08:47:27;99588.63;;;11.08;78.94
5138;BME280;53959;53.626;11.410;2023-03-23T08:50:15;99601.28;;;11.03;79.34
5138;BME280;53959;53.626;11.410;2023-03-23T08:52:52;99607.91;;;10.93;80.21
5138;BME280;53959;53.626;11.410;2023-03-23T08:55:30;99590.72;;;10.81;81.29
5138;BME280;53959;53.626;11.410;2023-03-23T08:58:13;99593.84;;;10.70;81.83
5138;BME280;53959;53.626;11.410;2023-03-23T09:00:56;99586.22;;;10.83;81.55
5138;BME280;53959;53.626;11.410;2023-03-23T09:03:52;99588.53;;;10.91;81.75
5138;BME280;53959;53.626;11.410;2023-03-23T09:06:41;99589.50;;;11.09;81.30
5138;BME280;53959;53.626;11.410;2023-03-23T09:09:08;99582.84;;;11.19;80.13
5138;BME280;53959;53.626;11.410;2023-03-23T09:11:34;99600.09;;;11.29;79.70
5138;BME280;53959;53.626;11.410;2023-03-23T09:14:01;99584.75;;;11.36;79.87
5138;BME280;53959;53.626;11.410;2023-03-23T09:16:27;99595.06;;;11.42;79.56
5138;BME280;53959;53.626;11.410;2023-03-23T09:18:53;99588.75;;;11.45;79.67
5138;BME280;53959;53.626;11.410;2023-03-23T09:21:18;99597.50;;;11.47;78.81
5138;BME280;53959;53.626;11.410;2023-03-23T09:23:44;99584.88;;;11.52;78.43
5138;BME280;53959;53.626;11.410;2023-03-23T09:26:10;99588.66;;;11.65;78.05
5138;BME280;53959;53.626;11.410;2023-03-23T09:28:36;99585.59;;;11.74;77.71
5138;BME280;53959;53.626;11.410;2023-03-23T09:31:01;99578.25;;;11.98;77.19
5138;BME280;53959;53.626;11.410;2023-03-23T09:33:27;99578.44;;;12.12;77.02
5138;BME280;53959;53.626;11.410;2023-03-23T09:35:54;99596.97;;;11.97;76.10
5138;BME280;53959;53.626;11.410;2023-03-23T09:38:20;99593.72;;;11.90;76.14
5138;BME280;53959;53.626;11.410;2023-03-23T09:43:39;99599.63;;;11.78;76.38
5138;BME280;53959;53.626;11.410;2023-03-23T09:48:59;99598.22;;;11.69;76.17
5138;BME280;53959;53.626;11.410;2023-03-23T09:51:35;99619.59;;;11.67;76.91
5138;BME280;53959;53.626;11.410;2023-03-23T09:54:14;99607.75;;;11.56;77.82
5138;BME280;53959;53.626;11.410;2023-03-23T09:56:44;99615.03;;;11.51;78.00
5138;BME280;53959;53.626;11.410;2023-03-23T09:59:16;99623.19;;;11.66;79.01
5138;BME280;53959;53.626;11.410;2023-03-23T10:01:48;99616.09;;;11.86;77.92
5138;BME280;53959;53.626;11.410;2023-03-23T10:07:10;99639.50;;;12.15;76.16
5138;BME280;53959;53.626;11.410;2023-03-23T10:09:36;99635.44;;;12.26;76.11
5138;BME280;53959;53.626;11.410;2023-03-23T10:12:18;99643.66;;;12.21;75.64
5138;BME280;53959;53.626;11.410;2023-03-23T10:15:08;99652.44;;;12.23;75.19
5138;BME280;53959;53.626;11.410;2023-03-23T10:22:58;99657.91;;;12.20;73.64
5138;BME280;53959;53.626;11.410;2023-03-23T10:25:29;99660.16;;;12.10;72.70
5138;BME280;53959;53.626;11.410;2023-03-23T10:28:04;99665.34;;;12.13;73.16
5138;BME280;53959;53.626;11.410;2023-03-23T10:30:39;99664.13;;;12.02;72.51
5138;BME280;53959;53.626;11.410;2023-03-23T10:35:47;99667.00;;;11.97;73.40
5138;BME280;53959;53.626;11.410;2023-03-23T10:38:23;99670.16;;;11.86;74.09
5138;BME280;53959;53.626;11.410;2023-03-23T10:41:01;99661.66;;;11.78;74.36
5138;BME280;53959;53.626;11.410;2023-03-23T10:43:28;99667.97;;;11.76;73.84
5138;BME280;53959;53.626;11.410;2023-03-23T10:46:02;99667.84;;;11.79;73.87
5138;BME280;53959;53.626;11.410;2023-03-23T10:48:31;99669.94;;;11.91;73.65
5138;BME280;53959;53.626;11.410;2023-03-23T10:51:00;99663.84;;;11.89;73.32
5138;BME280;53959;53.626;11.410;2023-03-23T10:53:37;99680.59;;;12.10;73.32
5138;BME280;53959;53.626;11.410;2023-03-23T10:56:04;99665.09;;;12.18;72.79
5138;BME280;53959;53.626;11.410;2023-03-23T10:58:32;99666.38;;;12.28;71.70
5138;BME280;53959;53.626;11.410;2023-03-23T11:01:00;99673.47;;;12.47;70.82
5138;BME280;53959;53.626;11.410;2023-03-23T11:03:29;99673.41;;;12.48;70.41
5138;BME280;53959;53.626;11.410;2023-03-23T11:06:01;99665.34;;;12.50;69.61
5138;BME280;53959;53.626;11.410;2023-03-23T11:08:32;99682.59;;;12.60;69.90
5138;BME280;53959;53.626;11.410;2023-03-23T11:11:20;99691.56;;;12.40;69.13
5138;BME280;53959;53.626;11.410;2023-03-23T11:13:56;99682.03;;;12.53;68.69
5138;BME280;53959;53.626;11.410;2023-03-23T11:16:31;99691.97;;;12.50;68.68
5138;BME280;53959;53.626;11.410;2023-03-23T11:19:00;99695.03;;;12.59;68.89
5138;BME280;53959;53.626;11.410;2023-03-23T11:21:27;99690.75;;;12.57;67.98
5138;BME280;53959;53.626;11.410;2023-03-23T11:23:55;99696.84;;;12.59;68.12
5138;BME280;53959;53.626;11.410;2023-03-23T11:26:32;99686.72;;;12.48;67.96
5138;BME280;53959;53.626;11.410;2023-03-23T11:31:35;99692.41;;;12.40;67.55
5138;BME280;53959;53.626;11.410;2023-03-23T11:34:25;99697.72;;;12.40;67.17
5138;BME280;53959;53.626;11.410;2023-03-23T11:37:00;99715.75;;;12.35;67.49
5138;BME280;53959;53.626;11.410;2023-03-23T11:39:28;99700.84;;;12.31;67.36
5138;BME280;53959;53.626;11.410;2023-03-23T11:42:24;99724.81;;;12.31;67.02
5138;BME280;53959;53.626;11.410;2023-03-23T11:45:13;99715.84;;;12.15;67.04
5138;BME280;53959;53.626;11.410;2023-03-23T11:47:45;99724.47;;;12.20;66.57
5138;BME280;53959;53.626;11.410;2023-03-23T11:50:34;99710.34;;;12.18;65.95
5138;BME280;53959;53.626;11.410;2023-03-23T11:58:17;99713.94;;;12.36;66.35
5138;BME280;53959;53.626;11.410;2023-03-23T12:00:56;99722.25;;;12.30;66.51
5138;BME280;53959;53.626;11.410;2023-03-23T12:03:23;99711.00;;;12.23;66.89
5138;BME280;53959;53.626;11.410;2023-03-23T12:06:08;99726.63;;;12.12;66.94
5138;BME280;53959;53.626;11.410;2023-03-23T12:08:45;99715.53;;;12.21;67.28
5138;BME280;53959;53.626;11.410;2023-03-23T12:14:13;99719.41;;;12.14;67.12
5138;BME280;53959;53.626;11.410;2023-03-23T12:16:53;99722.09;;;12.14;67.36
5138;BME280;53959;53.626;11.410;2023-03-23T12:19:29;99721.72;;;12.22;67.31
5138;BME280;53959;53.626;11.410;2023-03-23T12:24:56;99733.88;;;12.27;66.95
5138;BME280;53959;53.626;11.410;2023-03-23T12:30:41;99729.25;;;12.50;67.00
5138;BME280;53959;53.626;11.410;2023-03-23T12:33:33;99736.81;;;12.40;67.59
5138;BME280;53959;53.626;11.410;2023-03-23T12:36:50;99728.19;;;12.71;67.88
5138;BME280;53959;53.626;11.410;2023-03-23T12:42:03;99749.41;;;12.55;68.29
5138;BME280;53959;53.626;11.410;2023-03-23T12:44:41;99739.94;;;12.31;68.89
5138;BME280;53959;53.626;11.410;2023-03-23T12:53:00;99745.41;;;12.09;69.80
5138;BME280;53959;53.626;11.410;2023-03-23T12:55:42;99751.84;;;12.22;70.46
5138;BME280;53959;53.626;11.410;2023-03-23T12:58:17;99735.88;;;12.22;71.04
5138;BME280;53959;53.626;11.410;2023-03-23T13:01:04;99738.84;;;12.16;71.07
5138;BME280;53959;53.626;11.410;2023-03-23T13:03:33;99755.41;;;12.04;71.48
5138;BME280;53959;53.626;11.410;2023-03-23T13:06:18;99742.16;;;12.02;71.86
5138;BME280;53959;53.626;11.410;2023-03-23T13:11:33;99755.81;;;11.95;71.75
5138;BME280;53959;53.626;11.410;2023-03-23T13:14:07;99756.81;;;11.92;72.05
5138;BME280;53959;53.626;11.410;2023-03-23T13:16:44;99745.25;;;11.93;72.11
5138;BME280;53959;53.626;11.410;2023-03-23T13:24:49;99748.31;;;11.84;72.03
5138;BME280;53959;53.626;11.410;2023-03-23T13:27:16;99746.50;;;11.84;71.95
5138;BME280;53959;53.626;11.410;2023-03-23T13:29:45;99751.94;;;11.62;72.53
5138;BME280;53959;53.626;11.410;2023-03-23T13:32:15;99749.91;;;11.67;72.16
5138;BME280;53959;53.626;11.410;2023-03-23T13:34:41;99732.53;;;11.79;72.14
5138;BME280;53959;53.626;11.410;2023-03-23T13:37:19;99733.34;;;11.81;72.44
5138;BME280;53959;53.626;11.410;2023-03-23T13:40:19;99733.81;;;11.71;72.22
5138;BME280;53959;53.626;11.410;2023-03-23T13:42:51;99737.72;;;11.82;72.51
5138;BME280;53959;53.626;11.410;2023-03-23T13:50:29;99752.28;;;11.55;72.85
5138;BME280;53959;53.626;11.410;2023-03-23T13:53:01;99745.47;;;11.68;72.39
5138;BME280;53959;53.626;11.410;2023-03-23T14:08:45;99723.63;;;11.80;72.16
5138;BME280;53959;53.626;11.410;2023-03-23T14:11:19;99749.00;;;12.08;70.97
5138;BME280;53959;53.626;11.410;2023-03-23T14:14:04;99740.66;;;12.34;70.00
5138;BME280;53959;53.626;11.410;2023-03-23T14:16:41;99740.53;;;12.55;69.70
5138;BME280;53959;53.626;11.410;2023-03-23T14:19:28;99733.97;;;12.62;69.80
5138;BME280;53959;53.626;11.410;2023-03-23T14:21:56;99739.97;;;12.84;68.86
5138;BME280;53959;53.626;11.410;2023-03-23T14:24:24;99736.16;;;12.54;69.68
5138;BME280;53959;53.626;11.410;2023-03-23T14:26:52;99743.19;;;12.37;70.23
5138;BME280;53959;53.626;11.410;2023-03-23T14:29:20;99736.78;;;12.23;70.72
5138;BME280;53959;53.626;11.410;2023-03-23T14:31:53;99752.81;;;12.21;70.76
5138;BME280;53959;53.626;11.410;2023-03-23T14:34:20;99729.53;;;12.44;70.18
5138;BME280;53959;53.626;11.410;2023-03-23T14:36:47;99742.94;;;12.42;70.23
5138;BME280;53959;53.626;11.410;2023-03-23T14:39:24;99742.00;;;12.43;69.83
5138;BME280;53959;53.626;11.410;2023-03-23T14:41:53;99745.09;;;12.53;70.09
5138;BME280;53959;53.626;11.410;2023-03-23T14:44:29;99738.19;;;12.49;70.10
5138;BME280;53959;53.626;11.410;2023-03-23T14:46:56;99753.16;;;12.51;69.98
5138;BME280;53959;53.626;11.410;2023-03-23T14:49:32;99746.38;;;12.44;70.54
5138;BME280;53959;53.626;11.410;2023-03-23T14:52:15;99749.00;;;12.46;70.38
5138;BME280;53959;53.626;11.410;2023-03-23T14:54:42;99751.00;;;12.40;70.97
5138;BME280;53959;53.626;11.410;2023-03-23T14:57:16;99747.81;;;12.51;70.96
5138;BME280;53959;53.626;11.410;2023-03-23T14:59:43;99751.72;;;12.44;71.13
5138;BME280;53959;53.626;11.410;2023-03-23T15:02:31;99735.97;;;12.39;71.36